createdAt,value
2022-11-23T00:03:15.094Z,68.55
2022-11-23T00:08:15.079Z,68.51
2022-11-23T00:13:14.951Z,68.47
2022-11-23T00:18:14.931Z,68.44
2022-11-23T00:23:14.827Z,68.43
2022-11-23T00:28:14.761Z,68.42
2022-11-23T00:33:14.749Z,68.41
2022-11-23T00:38:14.658Z,68.38
2022-11-23T00:43:14.539Z,68.39
2022-11-23T00:48:14.507Z,68.39
2022-11-23T00:53:14.444Z,68.39
2022-11-23T00:58:14.373Z,68.40
2022-11-23T01:03:14.271Z,68.40
2022-11-23T01:08:39.199Z,68.08
2022-11-23T01:13:31.580Z,68.41
2022-11-23T01:18:31.575Z,68.54
2022-11-23T01:23:31.479Z,68.58
2022-11-23T01:28:31.401Z,68.56
2022-11-23T01:33:34.845Z,68.56
2022-11-23T01:38:31.243Z,68.56
2022-11-23T01:43:31.395Z,68.57
2022-11-23T01:48:31.182Z,68.58
2022-11-23T01:53:31.061Z,68.57
2022-11-23T01:58:31.016Z,68.56
2022-11-23T02:03:30.944Z,68.54
2022-11-23T02:08:30.848Z,68.52
2022-11-23T02:13:30.808Z,68.57
2022-11-23T02:18:30.737Z,68.63
2022-11-23T02:23:30.672Z,68.66
2022-11-23T02:28:30.615Z,68.67
2022-11-23T02:33:30.558Z,68.69
2022-11-23T02:38:30.469Z,68.68
2022-11-23T02:43:30.418Z,68.68
2022-11-23T02:48:30.334Z,68.70
2022-11-23T02:53:30.264Z,68.65
2022-11-23T02:58:30.313Z,68.68
2022-11-23T03:03:30.161Z,68.68
2022-11-23T03:08:30.047Z,68.71
2022-11-23T03:13:30.028Z,68.71
2022-11-23T03:18:29.945Z,68.76
2022-11-23T03:23:29.874Z,68.77
2022-11-23T03:28:29.805Z,68.85
2022-11-23T03:33:29.768Z,68.90
2022-11-23T03:38:29.667Z,68.91
2022-11-23T03:43:29.627Z,68.95
2022-11-23T03:48:29.546Z,68.97
2022-11-23T03:53:29.477Z,69.01
2022-11-23T03:58:29.415Z,69.03
2022-11-23T04:03:29.376Z,69.07
2022-11-23T04:08:29.270Z,69.09
2022-11-23T04:13:29.258Z,69.12
2022-11-23T04:18:29.157Z,69.16
2022-11-23T04:23:29.127Z,69.17
2022-11-23T04:28:29.044Z,69.19
2022-11-23T04:33:28.953Z,69.19
2022-11-23T04:38:28.894Z,69.25
2022-11-23T04:43:28.845Z,69.29
2022-11-23T04:48:28.755Z,69.29
2022-11-23T04:53:28.695Z,69.30
2022-11-23T04:58:31.583Z,69.32
2022-11-23T05:03:29.574Z,69.33
2022-11-23T05:08:28.479Z,69.34
2022-11-23T05:13:28.445Z,69.34
2022-11-23T05:18:37.878Z,69.01
2022-11-23T05:23:30.277Z,69.24
2022-11-23T05:28:40.129Z,69.36
2022-11-23T05:33:31.137Z,69.37
2022-11-23T05:38:30.061Z,69.34
2022-11-23T05:43:30.003Z,69.30
2022-11-23T05:48:29.971Z,69.33
2022-11-23T05:53:29.878Z,69.35
2022-11-23T05:58:29.835Z,69.35
2022-11-23T06:03:29.752Z,69.39
2022-11-23T06:08:29.682Z,69.43
2022-11-23T06:13:29.638Z,69.49
2022-11-23T06:18:29.568Z,69.51
2022-11-23T06:23:29.485Z,69.54
2022-11-23T06:28:29.445Z,69.58
2022-11-23T06:33:29.347Z,69.58
2022-11-23T06:38:29.282Z,69.61
2022-11-23T06:43:29.213Z,69.63
2022-11-23T06:48:29.177Z,69.59
2022-11-23T06:53:29.081Z,69.60
2022-11-23T06:58:29.038Z,69.58
2022-11-23T07:03:28.989Z,69.60
2022-11-23T07:08:28.915Z,69.58
2022-11-23T07:13:28.865Z,69.54
2022-11-23T07:18:28.766Z,69.53
2022-11-23T07:23:28.736Z,69.53
2022-11-23T07:28:28.658Z,69.50
2022-11-23T07:33:28.558Z,69.49
2022-11-23T07:38:28.507Z,69.48
2022-11-23T07:43:28.441Z,69.47
2022-11-23T07:48:33.221Z,69.51
2022-11-23T07:53:29.301Z,69.41
2022-11-23T07:58:28.222Z,68.80
2022-11-23T08:03:29.175Z,67.34
2022-11-23T08:08:28.123Z,67.34
2022-11-23T08:13:28.015Z,67.75
2022-11-23T08:18:27.998Z,67.85
2022-11-23T08:23:27.917Z,67.41
2022-11-23T08:28:27.863Z,67.03
2022-11-23T08:33:27.764Z,66.83
2022-11-23T08:38:27.740Z,66.50
2022-11-23T08:43:27.617Z,66.10
2022-11-23T08:48:27.603Z,66.17
2022-11-23T08:53:27.513Z,66.03
2022-11-23T08:58:27.455Z,66.32
2022-11-23T09:03:27.370Z,66.49
2022-11-23T09:08:27.325Z,66.29
2022-11-23T09:13:27.230Z,65.92
2022-11-23T09:18:27.245Z,64.48
2022-11-23T09:23:27.108Z,63.89
2022-11-23T09:28:27.071Z,63.34
2022-11-23T09:33:26.987Z,63.17
2022-11-23T09:38:44.790Z,62.85
2022-11-23T09:43:27.849Z,61.56
2022-11-23T09:48:26.822Z,61.44
2022-11-23T09:53:26.714Z,61.97
2022-11-23T09:58:26.665Z,61.89
2022-11-23T10:03:26.588Z,61.50
2022-11-23T10:08:26.538Z,61.28
2022-11-23T10:13:26.467Z,61.76
2022-11-23T10:18:26.395Z,61.99
2022-11-23T10:23:26.316Z,61.84
2022-11-23T10:28:26.268Z,61.24
2022-11-23T10:33:26.181Z,59.76
2022-11-23T10:38:26.138Z,58.27
2022-11-23T10:43:26.065Z,56.93
2022-11-23T10:48:26.003Z,55.11
2022-11-23T10:53:25.923Z,54.82
2022-11-23T10:58:25.875Z,54.80
2022-11-23T11:03:25.797Z,53.84
2022-11-23T11:08:25.730Z,50.16
2022-11-23T11:13:25.659Z,42.95
2022-11-23T11:18:25.627Z,41.03
2022-11-23T11:23:25.523Z,45.51
2022-11-23T11:28:25.506Z,45.50
2022-11-23T11:33:25.387Z,44.58
2022-11-23T11:38:25.339Z,47.57
2022-11-23T11:43:32.415Z,49.60
2022-11-23T11:48:26.216Z,49.63
2022-11-23T11:53:25.159Z,48.57
2022-11-23T11:58:25.072Z,49.21
2022-11-23T12:03:24.999Z,50.15
2022-11-23T12:08:24.947Z,51.17
2022-11-23T12:13:24.872Z,52.01
2022-11-23T12:18:24.810Z,52.25
2022-11-23T12:23:24.745Z,52.29
2022-11-23T12:28:24.691Z,53.17
2022-11-23T12:33:24.604Z,53.80
2022-11-23T12:38:24.575Z,53.07
2022-11-23T12:43:24.446Z,53.34
2022-11-23T12:48:24.423Z,53.21
2022-11-23T12:53:24.467Z,52.79
2022-11-23T12:58:24.286Z,53.51
2022-11-23T13:03:24.191Z,53.20
2022-11-23T13:08:24.228Z,53.30
2022-11-23T13:13:24.070Z,53.04
2022-11-23T13:18:24.023Z,52.67
2022-11-23T13:23:23.947Z,52.96
2022-11-23T13:28:23.896Z,53.54
2022-11-23T13:33:28.400Z,54.17
2022-11-23T13:38:24.755Z,54.54
2022-11-23T13:43:23.670Z,54.65
2022-11-23T13:48:55.077Z,54.85
2022-11-23T13:53:24.536Z,54.90
2022-11-23T13:58:23.499Z,55.54
2022-11-23T14:03:23.405Z,55.71
2022-11-23T14:08:23.359Z,56.01
2022-11-23T14:13:23.270Z,56.02
2022-11-23T14:18:23.256Z,56.40
2022-11-23T14:23:23.151Z,56.66
2022-11-23T14:28:23.105Z,57.00
2022-11-23T14:33:23.007Z,57.35
2022-11-23T14:38:22.960Z,57.67
2022-11-23T14:43:22.865Z,57.93
2022-11-23T14:48:22.835Z,58.26
2022-11-23T14:53:22.773Z,58.48
2022-11-23T14:58:22.685Z,58.62
2022-11-23T15:08:23.580Z,58.97
2022-11-23T15:13:22.481Z,59.20
2022-11-23T15:18:22.503Z,59.54
2022-11-23T15:23:22.365Z,59.78
2022-11-23T15:28:22.277Z,59.97
2022-11-23T15:33:22.210Z,60.18
2022-11-23T15:38:23.812Z,60.35
2022-11-23T15:43:22.077Z,60.47
2022-11-23T15:48:22.068Z,60.57
2022-11-23T15:53:21.971Z,60.64
2022-11-23T15:58:21.907Z,60.74
2022-11-23T16:03:23.634Z,60.80
2022-11-23T16:08:21.746Z,60.87
2022-11-23T16:13:21.692Z,60.95
2022-11-23T16:18:21.654Z,61.06
2022-11-23T16:23:21.585Z,61.42
2022-11-23T16:28:21.481Z,61.78
2022-11-23T16:33:21.465Z,62.25
2022-11-23T16:38:21.361Z,62.45
2022-11-23T16:43:21.321Z,62.70
2022-11-23T16:48:21.245Z,62.90
2022-11-23T16:53:21.184Z,63.05
2022-11-23T16:58:21.127Z,63.21
2022-11-23T17:03:21.043Z,63.31
2022-11-23T17:08:23.813Z,63.46
2022-11-23T17:13:20.950Z,63.58
2022-11-23T17:18:20.852Z,63.83
2022-11-23T17:23:20.804Z,64.05
2022-11-23T17:28:20.704Z,64.21
2022-11-23T17:33:20.638Z,64.24
2022-11-23T17:38:20.586Z,64.34
2022-11-23T17:43:20.535Z,64.42
2022-11-23T17:48:20.434Z,64.56
2022-11-23T17:53:24.280Z,64.62
2022-11-23T17:58:21.331Z,64.67
2022-11-23T18:03:20.292Z,64.71
2022-11-23T18:08:20.187Z,64.77
2022-11-23T18:13:20.115Z,64.86
2022-11-23T18:18:20.032Z,64.94
2022-11-23T18:23:19.983Z,65.09
2022-11-23T18:28:19.921Z,65.22
2022-11-23T18:33:19.842Z,65.32
2022-11-23T18:38:20.896Z,65.85
2022-11-23T18:43:19.768Z,66.04
2022-11-23T18:48:19.646Z,66.06
2022-11-23T18:53:19.599Z,66.09
2022-11-23T18:58:19.598Z,66.19
2022-11-23T19:03:19.503Z,66.25
2022-11-23T19:08:19.396Z,66.39
2022-11-23T19:13:19.339Z,66.42
2022-11-23T19:18:19.290Z,66.44
2022-11-23T19:23:19.213Z,66.51
2022-11-23T19:28:19.121Z,66.57
2022-11-23T19:33:19.107Z,66.67
2022-11-23T19:38:18.995Z,66.76
2022-11-23T19:43:18.973Z,66.83
2022-11-23T19:48:18.875Z,66.92
2022-11-23T19:53:18.849Z,66.98
2022-11-23T19:58:18.722Z,67.05
2022-11-23T20:03:18.683Z,67.13
2022-11-23T20:08:18.655Z,67.28
2022-11-23T20:13:18.561Z,67.40
2022-11-23T20:18:18.480Z,67.51
2022-11-23T20:23:18.427Z,67.55
2022-11-23T20:28:18.357Z,67.63
2022-11-23T20:33:18.278Z,67.70
2022-11-23T20:38:18.200Z,67.81
2022-11-23T20:43:18.159Z,67.84
2022-11-23T20:48:18.069Z,67.91
2022-11-23T20:53:18.026Z,67.98
2022-11-23T20:58:18.009Z,68.08
2022-11-23T21:03:17.931Z,68.16
2022-11-23T21:08:23.808Z,68.22
2022-11-23T21:13:18.761Z,68.28
2022-11-23T21:18:17.699Z,68.32
2022-11-23T21:23:17.668Z,68.37
2022-11-23T21:28:17.536Z,68.42
2022-11-23T21:33:17.508Z,68.47
2022-11-23T21:38:17.435Z,68.52
2022-11-23T21:43:17.378Z,68.56
2022-11-23T21:48:17.331Z,68.61
2022-11-23T21:53:17.235Z,68.65
2022-11-23T21:58:17.191Z,68.73
2022-11-23T22:03:17.097Z,68.80
2022-11-23T22:08:32.323Z,68.85
2022-11-23T22:13:17.984Z,68.89
2022-11-23T22:18:16.898Z,68.92
2022-11-23T22:23:16.831Z,68.99
2022-11-23T22:28:16.757Z,69.03
2022-11-23T22:33:16.721Z,69.18
2022-11-23T22:38:16.632Z,69.11
2022-11-23T22:43:16.564Z,69.07
2022-11-23T22:48:16.530Z,69.06
2022-11-23T22:53:16.495Z,69.08
2022-11-23T22:58:16.368Z,69.14
2022-11-23T23:03:16.368Z,69.27
2022-11-23T23:08:16.269Z,69.33
2022-11-23T23:13:16.152Z,69.39
2022-11-23T23:18:16.096Z,69.44
2022-11-23T23:23:16.034Z,69.44
2022-11-23T23:28:15.969Z,69.45
2022-11-23T23:33:15.903Z,69.50
2022-11-23T23:38:15.833Z,69.70
2022-11-23T23:43:15.787Z,69.69
2022-11-23T23:48:15.725Z,69.75
2022-11-23T23:53:15.689Z,69.81
2022-11-23T23:58:15.568Z,69.87
